createdAt,value
2023-02-17T00:00:13.065Z,11.77
2023-02-17T00:02:41.278Z,11.80
2023-02-17T00:05:10.441Z,10.35
2023-02-17T00:07:39.352Z,10.73
2023-02-17T00:10:09.165Z,11.52
2023-02-17T00:12:37.625Z,11.18
2023-02-17T00:15:09.485Z,9.27
2023-02-17T00:17:38.708Z,10.27
2023-02-17T00:20:07.832Z,9.65
2023-02-17T00:22:36.722Z,10.23
2023-02-17T00:25:05.522Z,10.07
2023-02-17T00:27:34.814Z,9.32
2023-02-17T00:30:04.022Z,10.32
2023-02-17T00:32:32.582Z,8.85
2023-02-17T00:35:00.736Z,9.20
2023-02-17T00:37:28.879Z,9.98
2023-02-17T00:39:57.490Z,10.00
2023-02-17T00:42:25.648Z,10.13
2023-02-17T00:44:53.884Z,10.05
2023-02-17T00:47:21.953Z,10.18
2023-02-17T00:49:52.622Z,10.45
2023-02-17T00:52:21.422Z,10.70
2023-02-17T00:54:49.806Z,10.38
2023-02-17T00:57:18.622Z,10.18
2023-02-17T00:59:47.247Z,10.05
2023-02-17T01:02:16.046Z,9.00
2023-02-17T01:04:44.045Z,10.57
2023-02-17T01:07:16.284Z,10.02
2023-02-17T01:09:44.552Z,10.05
2023-02-17T01:12:16.108Z,9.77
2023-02-17T01:14:44.028Z,10.43
2023-02-17T01:17:14.395Z,10.18
2023-02-17T01:19:43.523Z,11.07
2023-02-17T01:22:11.592Z,10.90
2023-02-17T01:24:40.525Z,12.23
2023-02-17T01:27:08.568Z,11.10
2023-02-17T01:29:37.411Z,12.20
2023-02-17T01:32:07.640Z,11.60
2023-02-17T01:34:38.101Z,13.23
2023-02-17T01:37:07.806Z,13.70
2023-02-17T01:39:39.854Z,11.75
2023-02-17T01:42:21.008Z,11.07
2023-02-17T01:45:17.747Z,10.70
2023-02-17T01:47:49.755Z,9.98
2023-02-17T01:50:19.744Z,11.43
2023-02-17T01:52:47.756Z,11.10
2023-02-17T01:55:17.381Z,11.50
2023-02-17T01:57:45.362Z,12.50
2023-02-17T02:00:13.771Z,12.73
2023-02-17T02:02:42.966Z,11.80
2023-02-17T02:05:15.112Z,13.32
2023-02-17T02:07:46.466Z,14.88
2023-02-17T02:10:15.033Z,14.98
2023-02-17T02:12:44.027Z,16.02
2023-02-17T02:15:20.743Z,15.77
2023-02-17T02:18:07.690Z,16.23
2023-02-17T02:20:41.857Z,14.25
2023-02-17T02:23:32.037Z,14.30
2023-02-17T02:26:12.992Z,16.00
2023-02-17T02:28:44.244Z,14.55
2023-02-17T02:31:31.193Z,15.15
2023-02-17T02:34:12.643Z,13.15
2023-02-17T02:36:46.449Z,12.52
2023-02-17T02:39:20.054Z,13.35
2023-02-17T02:41:49.082Z,12.32
2023-02-17T02:44:19.610Z,11.70
2023-02-17T02:47:02.504Z,12.13
2023-02-17T02:49:36.298Z,10.60
2023-02-17T02:52:05.356Z,12.27
2023-02-17T02:54:42.258Z,11.82
2023-02-17T02:57:38.454Z,12.90
2023-02-17T03:00:24.476Z,13.68
2023-02-17T03:02:55.468Z,12.27
2023-02-17T03:06:11.830Z,12.23
2023-02-17T03:08:53.911Z,11.88
2023-02-17T03:11:34.041Z,11.80
2023-02-17T03:14:22.944Z,11.13
2023-02-17T03:16:51.715Z,11.00
2023-02-17T03:19:22.903Z,10.77
2023-02-17T03:22:00.279Z,10.73
2023-02-17T03:24:28.797Z,10.27
2023-02-17T03:26:57.611Z,9.27
2023-02-17T03:29:29.326Z,10.27
2023-02-17T03:31:58.355Z,12.35
2023-02-17T03:34:26.510Z,12.18
2023-02-17T03:36:55.606Z,10.73
2023-02-17T03:39:24.215Z,10.95
2023-02-17T03:41:52.733Z,10.32
2023-02-17T03:44:25.816Z,9.77
2023-02-17T03:46:55.526Z,9.93
2023-02-17T03:49:23.482Z,9.65
2023-02-17T03:51:51.621Z,10.30
2023-02-17T03:54:19.598Z,11.38
2023-02-17T03:56:47.763Z,11.57
2023-02-17T03:59:17.084Z,13.38
2023-02-17T04:01:47.832Z,14.70
2023-02-17T04:04:15.946Z,14.00
2023-02-17T04:06:44.615Z,14.48
2023-02-17T04:09:12.697Z,12.90
2023-02-17T04:11:43.409Z,13.48
2023-02-17T04:14:12.660Z,14.25
2023-02-17T04:16:40.618Z,12.55
2023-02-17T04:19:08.735Z,12.35
2023-02-17T04:21:36.907Z,12.90
2023-02-17T04:24:05.855Z,14.00
2023-02-17T04:26:34.245Z,13.07
2023-02-17T04:29:04.773Z,13.50
2023-02-17T04:31:33.766Z,11.55
2023-02-17T04:34:02.377Z,10.25
2023-02-17T04:36:31.387Z,10.85
2023-02-17T04:38:59.254Z,10.70
2023-02-17T04:41:27.437Z,11.57
2023-02-17T04:43:55.200Z,10.63
2023-02-17T04:46:23.710Z,10.63
2023-02-17T04:48:51.782Z,9.27
2023-02-17T04:51:21.224Z,9.90
2023-02-17T04:53:50.490Z,8.82
2023-02-17T04:56:18.616Z,8.32
2023-02-17T04:58:47.686Z,8.25
2023-02-17T05:01:15.849Z,8.00
2023-02-17T05:03:44.062Z,9.43
2023-02-17T05:06:12.745Z,7.63
2023-02-17T05:08:43.040Z,7.82
2023-02-17T05:11:11.196Z,8.45
2023-02-17T05:13:39.112Z,7.55
2023-02-17T05:16:10.807Z,7.95
2023-02-17T05:18:42.997Z,6.15
2023-02-17T05:21:43.231Z,6.90
2023-02-17T05:24:11.500Z,7.38
2023-02-17T05:26:43.141Z,6.30
2023-02-17T05:29:11.258Z,7.03
2023-02-17T05:31:39.482Z,5.97
2023-02-17T05:34:08.589Z,6.65
2023-02-17T05:36:37.143Z,7.50
2023-02-17T05:39:06.495Z,6.35
2023-02-17T05:41:35.750Z,6.53
2023-02-17T05:44:04.125Z,6.35
2023-02-17T05:46:33.607Z,7.25
2023-02-17T05:49:01.589Z,6.68
2023-02-17T05:51:30.782Z,7.95
2023-02-17T05:54:01.360Z,6.72
2023-02-17T05:56:29.655Z,7.25
2023-02-17T05:58:58.534Z,6.82
2023-02-17T06:01:27.445Z,6.88
2023-02-17T06:03:56.932Z,6.43
2023-02-17T06:06:25.043Z,6.53
2023-02-17T06:08:53.245Z,5.82
2023-02-17T06:11:21.408Z,5.68
2023-02-17T06:13:49.511Z,5.72
2023-02-17T06:16:19.797Z,5.68
2023-02-17T06:18:51.493Z,5.68
2023-02-17T06:21:19.418Z,5.75
2023-02-17T06:23:47.918Z,6.28
2023-02-17T06:26:19.097Z,5.75
2023-02-17T06:28:47.384Z,5.80
2023-02-17T06:31:19.138Z,6.60
2023-02-17T06:33:48.901Z,6.45
2023-02-17T06:36:17.104Z,6.55
2023-02-17T06:38:45.121Z,7.65
2023-02-17T06:41:13.361Z,6.68
2023-02-17T06:43:41.678Z,6.28
2023-02-17T06:46:12.181Z,7.18
2023-02-17T06:48:41.433Z,6.38
2023-02-17T06:51:10.607Z,6.25
2023-02-17T06:53:38.693Z,5.97
2023-02-17T06:56:07.638Z,6.97
2023-02-17T06:58:37.351Z,6.45
2023-02-17T07:01:20.678Z,6.72
2023-02-17T07:03:50.186Z,6.25
2023-02-17T07:06:20.036Z,6.57
2023-02-17T07:08:47.996Z,6.00
2023-02-17T07:11:17.171Z,5.65
2023-02-17T07:13:48.415Z,5.57
2023-02-17T07:16:16.920Z,5.65
2023-02-17T07:18:56.002Z,5.88
2023-02-17T07:21:29.138Z,5.57
2023-02-17T07:23:57.815Z,5.78
2023-02-17T07:26:25.806Z,5.55
2023-02-17T07:28:54.041Z,5.13
2023-02-17T07:31:24.097Z,5.43
2023-02-17T07:33:53.523Z,5.72
2023-02-17T07:36:23.053Z,4.30
2023-02-17T07:38:51.880Z,5.50
2023-02-17T07:41:21.194Z,6.82
2023-02-17T07:43:49.908Z,5.38
2023-02-17T07:46:18.525Z,4.93
2023-02-17T07:48:47.991Z,5.22
2023-02-17T07:51:18.145Z,4.78
2023-02-17T07:53:47.365Z,5.78
2023-02-17T07:56:19.482Z,4.72
2023-02-17T07:58:48.241Z,4.50
2023-02-17T08:01:22.541Z,5.40
2023-02-17T08:03:50.796Z,5.60
2023-02-17T08:06:23.759Z,5.68
2023-02-17T08:09:11.658Z,5.20
2023-02-17T08:12:00.746Z,7.63
2023-02-17T08:14:31.663Z,4.60
2023-02-17T08:17:00.557Z,5.60
2023-02-17T08:19:39.637Z,5.53
2023-02-17T08:22:14.475Z,5.28
2023-02-17T08:24:44.262Z,5.22
2023-02-17T08:27:13.578Z,5.90
2023-02-17T08:29:56.558Z,5.60
2023-02-17T08:32:28.458Z,5.43
2023-02-17T08:34:58.161Z,4.90
2023-02-17T08:37:26.585Z,5.53
2023-02-17T08:40:00.466Z,5.55
2023-02-17T08:42:49.275Z,5.00
2023-02-17T08:45:24.883Z,5.53
2023-02-17T08:47:55.403Z,6.10
2023-02-17T08:50:24.237Z,6.10
2023-02-17T08:52:53.114Z,5.82
2023-02-17T08:55:23.982Z,5.85
2023-02-17T08:57:52.191Z,5.88
2023-02-17T09:00:20.739Z,5.90
2023-02-17T09:02:50.957Z,6.35
2023-02-17T09:05:19.595Z,4.75
2023-02-17T09:07:49.672Z,4.72
2023-02-17T09:10:24.112Z,4.80
2023-02-17T09:12:53.488Z,4.72
2023-02-17T09:15:21.841Z,5.68
2023-02-17T09:17:51.106Z,5.30
2023-02-17T09:20:28.726Z,4.93
2023-02-17T09:23:29.002Z,4.72
2023-02-17T09:26:09.379Z,6.00
2023-02-17T09:28:39.592Z,4.70
2023-02-17T09:31:19.502Z,5.65
2023-02-17T09:33:48.406Z,6.07
2023-02-17T09:36:21.163Z,5.55
2023-02-17T09:38:49.750Z,5.68
2023-02-17T09:41:56.868Z,5.32
2023-02-17T09:45:06.094Z,5.35
2023-02-17T09:48:48.872Z,5.80
2023-02-17T09:51:42.595Z,6.20
2023-02-17T09:54:17.422Z,6.97
2023-02-17T09:56:49.762Z,6.43
2023-02-17T09:59:28.645Z,5.25
2023-02-17T10:01:57.314Z,5.40
2023-02-17T10:04:47.183Z,4.85
2023-02-17T10:07:34.583Z,5.55
2023-02-17T10:10:28.616Z,5.32
2023-02-17T10:21:49.436Z,5.68
2023-02-17T10:24:21.748Z,4.80
2023-02-17T10:27:32.384Z,5.32
2023-02-17T10:30:23.464Z,5.70
2023-02-17T10:33:02.238Z,6.60
2023-02-17T10:36:23.287Z,5.30
2023-02-17T10:39:01.700Z,4.88
2023-02-17T10:42:04.748Z,5.15
2023-02-17T10:44:37.498Z,4.95
2023-02-17T10:47:09.567Z,5.03
2023-02-17T10:49:43.721Z,5.53
2023-02-17T10:52:43.211Z,5.60
2023-02-17T10:55:33.785Z,6.65
2023-02-17T10:58:18.467Z,6.28
2023-02-17T11:00:54.367Z,7.03
2023-02-17T11:03:27.908Z,6.30
2023-02-17T11:06:15.264Z,5.43
2023-02-17T11:08:51.101Z,5.43
2023-02-17T11:11:32.906Z,5.75
2023-02-17T11:14:18.833Z,6.15
2023-02-17T11:16:52.947Z,4.95
2023-02-17T11:19:31.095Z,5.45
2023-02-17T11:22:02.898Z,5.20
2023-02-17T11:24:38.961Z,5.50
2023-02-17T11:27:11.437Z,6.20
2023-02-17T11:29:43.423Z,5.43
2023-02-17T11:32:14.002Z,5.22
2023-02-17T11:34:57.269Z,4.95
2023-02-17T11:37:28.010Z,5.05
2023-02-17T11:39:56.702Z,4.43
2023-02-17T11:42:33.726Z,5.82
2023-02-17T11:45:19.165Z,6.00
2023-02-17T11:48:10.489Z,6.18
2023-02-17T11:50:58.456Z,5.68
2023-02-17T11:54:12.401Z,5.00
2023-02-17T11:57:48.055Z,5.53
2023-02-17T12:00:18.471Z,5.22
2023-02-17T12:02:52.402Z,6.05
2023-02-17T12:05:42.685Z,8.20
2023-02-17T12:08:11.517Z,8.85
2023-02-17T12:11:33.740Z,10.07
2023-02-17T12:14:39.884Z,10.63
2023-02-17T12:17:18.046Z,12.02
2023-02-17T12:19:47.746Z,14.13
2023-02-17T12:22:44.309Z,13.88
2023-02-17T12:25:39.671Z,14.98
2023-02-17T12:28:19.029Z,16.75
2023-02-17T12:31:19.822Z,17.95
2023-02-17T12:34:02.781Z,19.98
2023-02-17T12:36:34.274Z,17.83
2023-02-17T12:39:25.037Z,15.18
2023-02-17T12:42:05.271Z,14.85
2023-02-17T12:44:42.587Z,17.75
2023-02-17T12:47:16.489Z,16.27
2023-02-17T12:50:22.953Z,17.13
2023-02-17T12:52:53.106Z,13.85
2023-02-17T12:56:14.172Z,14.35
2023-02-17T12:58:42.610Z,14.35
2023-02-17T13:01:18.845Z,14.68
2023-02-17T13:03:50.596Z,16.40
2023-02-17T13:06:32.762Z,15.13
2023-02-17T13:09:35.074Z,14.20
2023-02-17T13:12:25.081Z,12.15
2023-02-17T13:14:59.786Z,12.32
2023-02-17T13:17:39.698Z,11.85
2023-02-17T13:20:08.087Z,13.13
2023-02-17T13:22:37.428Z,13.23
2023-02-17T13:25:06.248Z,11.98
2023-02-17T13:27:36.799Z,13.68
2023-02-17T13:30:17.970Z,21.40
2023-02-17T13:33:22.640Z,24.40
2023-02-17T13:35:51.148Z,21.55
2023-02-17T13:38:57.789Z,21.45
2023-02-17T13:41:27.313Z,21.05
2023-02-17T13:43:56.774Z,17.52
2023-02-17T13:46:28.541Z,16.05
2023-02-17T13:49:05.387Z,18.55
2023-02-17T13:51:35.651Z,22.50
2023-02-17T13:54:08.105Z,25.25
2023-02-17T13:56:39.127Z,25.23
2023-02-17T13:59:13.025Z,27.08
2023-02-17T14:01:42.961Z,25.10
2023-02-17T14:04:23.928Z,18.35
2023-02-17T14:06:53.261Z,16.23
2023-02-17T14:09:26.121Z,13.70
2023-02-17T14:11:59.626Z,13.80
2023-02-17T14:14:40.615Z,14.85
2023-02-17T14:17:16.151Z,14.90
2023-02-17T14:19:46.735Z,15.87
2023-02-17T14:22:30.456Z,13.57
2023-02-17T14:25:00.607Z,16.63
2023-02-17T14:27:30.328Z,18.52
2023-02-17T14:30:02.807Z,19.90
2023-02-17T14:32:36.819Z,20.63
2023-02-17T14:35:19.768Z,23.17
2023-02-17T14:37:54.140Z,17.90
2023-02-17T14:40:29.487Z,14.52
2023-02-17T14:43:17.724Z,17.90
2023-02-17T14:45:54.804Z,15.07
2023-02-17T14:48:27.722Z,11.45
2023-02-17T14:51:39.196Z,11.52
2023-02-17T14:54:16.667Z,15.00
2023-02-17T14:57:06.331Z,17.00
2023-02-17T14:59:36.617Z,18.63
2023-02-17T15:02:21.376Z,17.45
2023-02-17T15:04:51.652Z,16.30
2023-02-17T15:07:23.444Z,15.90
2023-02-17T15:10:00.495Z,16.45
2023-02-17T15:12:31.540Z,18.77
2023-02-17T15:15:31.609Z,19.13
2023-02-17T15:18:08.264Z,17.75
2023-02-17T15:20:41.256Z,17.55
2023-02-17T15:23:15.728Z,18.83
2023-02-17T15:25:56.910Z,16.48
2023-02-17T15:29:33.842Z,15.43
2023-02-17T15:32:08.358Z,13.45
2023-02-17T15:34:41.324Z,14.07
2023-02-17T15:37:52.124Z,14.05
2023-02-17T15:49:35.197Z,13.40
2023-02-17T15:57:10.926Z,14.13
2023-02-17T16:00:14.089Z,12.93
2023-02-17T16:03:16.632Z,14.73
2023-02-17T16:06:21.104Z,15.45
2023-02-17T16:10:52.381Z,13.50
2023-02-17T16:14:24.758Z,13.38
2023-02-17T16:16:59.483Z,13.65
2023-02-17T16:19:29.621Z,14.25
2023-02-17T16:22:05.133Z,13.15
2023-02-17T16:24:43.546Z,13.57
2023-02-17T16:27:28.652Z,14.18
2023-02-17T16:33:12.842Z,13.63
2023-02-17T16:35:51.920Z,14.32
2023-02-17T16:38:26.558Z,13.27
2023-02-17T16:41:18.567Z,13.27
2023-02-17T16:43:48.963Z,13.93
2023-02-17T16:46:30.050Z,14.40
2023-02-17T16:49:00.296Z,15.55
2023-02-17T16:51:35.685Z,15.27
2023-02-17T16:54:04.212Z,14.63
2023-02-17T16:56:36.382Z,14.20
2023-02-17T16:59:05.410Z,16.17
2023-02-17T17:01:33.569Z,14.90
2023-02-17T17:04:01.823Z,14.93
2023-02-17T17:06:30.696Z,17.08
2023-02-17T17:08:59.038Z,16.77
2023-02-17T17:11:29.393Z,16.42
2023-02-17T17:13:57.549Z,16.50
2023-02-17T17:16:28.451Z,12.85
2023-02-17T17:18:59.572Z,15.35
2023-02-17T17:21:29.916Z,18.60
2023-02-17T17:23:59.116Z,19.00
2023-02-17T17:26:40.242Z,15.82
2023-02-17T17:29:13.553Z,16.55
2023-02-17T17:31:42.036Z,16.40
2023-02-17T17:34:10.583Z,16.83
2023-02-17T17:36:43.674Z,15.68
2023-02-17T17:39:23.154Z,14.23
2023-02-17T17:41:51.845Z,14.23
2023-02-17T17:44:20.963Z,13.20
2023-02-17T17:46:49.650Z,13.68
2023-02-17T17:49:18.815Z,14.30
2023-02-17T17:51:48.158Z,13.68
2023-02-17T17:54:16.392Z,13.55
2023-02-17T17:56:46.202Z,13.05
2023-02-17T17:59:17.304Z,14.70
2023-02-17T18:01:46.770Z,14.65
2023-02-17T18:04:15.110Z,12.15
2023-02-17T18:06:48.068Z,15.25
2023-02-17T18:09:30.768Z,15.43
2023-02-17T18:12:13.349Z,14.75
2023-02-17T18:14:42.926Z,16.02
2023-02-17T18:17:13.175Z,15.50
2023-02-17T18:19:42.360Z,14.13
2023-02-17T18:22:13.791Z,12.63
2023-02-17T18:24:47.601Z,14.23
2023-02-17T18:27:16.800Z,14.93
2023-02-17T18:29:45.689Z,15.00
2023-02-17T18:32:49.190Z,11.13
2023-02-17T18:35:20.931Z,13.02
2023-02-17T18:37:49.628Z,14.18
2023-02-17T18:41:23.662Z,12.85
2023-02-17T18:43:57.835Z,12.52
2023-02-17T18:46:27.330Z,11.82
2023-02-17T18:48:56.920Z,11.65
2023-02-17T18:51:34.707Z,13.18
2023-02-17T18:54:21.690Z,12.57
2023-02-17T18:56:50.831Z,12.88
2023-02-17T18:59:19.992Z,13.45
2023-02-17T19:01:55.890Z,13.85
2023-02-17T19:04:38.389Z,13.27
2023-02-17T19:07:17.809Z,14.35
2023-02-17T19:09:46.893Z,15.15
2023-02-17T19:12:18.965Z,15.70
2023-02-17T19:14:56.193Z,14.63
2023-02-17T19:17:25.938Z,15.18
2023-02-17T19:20:33.220Z,18.77
2023-02-17T19:23:42.800Z,24.55
2023-02-17T19:27:04.161Z,28.27
2023-02-17T19:30:10.045Z,24.70
2023-02-17T19:32:46.740Z,24.20
2023-02-17T19:35:30.630Z,17.20
2023-02-17T19:38:21.999Z,19.10
2023-02-17T19:40:51.978Z,18.67
2023-02-17T19:43:21.815Z,19.17
2023-02-17T19:45:53.881Z,18.33
2023-02-17T19:48:27.536Z,19.55
2023-02-17T19:51:03.454Z,19.52
2023-02-17T19:53:54.326Z,18.98
2023-02-17T19:56:35.484Z,17.48
2023-02-17T19:59:04.669Z,19.65
2023-02-17T20:01:34.115Z,23.50
2023-02-17T20:04:04.859Z,24.73
2023-02-17T20:11:34.722Z,23.40
2023-02-17T20:14:03.254Z,22.90
2023-02-17T20:16:44.288Z,23.92
2023-02-17T20:19:16.155Z,25.05
2023-02-17T20:22:06.437Z,25.98
2023-02-17T20:27:51.586Z,27.52
2023-02-17T20:30:20.461Z,24.45
2023-02-17T20:32:50.884Z,26.98
2023-02-17T20:35:20.264Z,23.23
2023-02-17T20:37:52.712Z,24.83
2023-02-17T20:40:25.677Z,22.27
2023-02-17T20:43:10.735Z,23.02
2023-02-17T20:45:52.151Z,23.25
2023-02-17T20:48:57.424Z,25.02
2023-02-17T20:51:49.904Z,29.13
2023-02-17T20:54:29.317Z,28.40
2023-02-17T20:57:01.176Z,28.00
2023-02-17T20:59:34.731Z,29.17
2023-02-17T21:02:03.079Z,27.98
2023-02-17T21:04:40.913Z,26.50
2023-02-17T21:07:15.477Z,27.70
2023-02-17T21:09:57.891Z,30.45
2023-02-17T21:12:26.709Z,31.65
2023-02-17T21:17:43.684Z,29.20
2023-02-17T21:20:15.624Z,26.55
2023-02-17T21:22:45.192Z,24.90
2023-02-17T21:25:24.846Z,23.90
2023-02-17T21:28:28.555Z,22.98
2023-02-17T21:30:56.689Z,26.08
2023-02-17T21:33:42.311Z,23.40
2023-02-17T21:36:44.811Z,22.13
2023-02-17T21:39:26.681Z,21.52
2023-02-17T21:42:45.976Z,20.02
2023-02-17T21:45:16.443Z,19.10
2023-02-17T21:47:45.820Z,20.80
2023-02-17T21:50:15.809Z,18.10
2023-02-17T21:52:57.296Z,19.13
2023-02-17T21:55:26.673Z,19.05
2023-02-17T21:58:02.524Z,18.58
2023-02-17T22:00:32.393Z,17.63
2023-02-17T22:03:00.396Z,18.00
2023-02-17T22:06:23.058Z,18.23
2023-02-17T22:08:54.014Z,16.70
2023-02-17T22:11:34.956Z,17.02
2023-02-17T22:18:32.904Z,16.15
2023-02-17T22:21:06.676Z,18.17
2023-02-17T22:23:37.523Z,15.73
2023-02-17T22:26:40.468Z,15.63
2023-02-17T22:29:42.602Z,14.63
2023-02-17T22:32:12.729Z,15.18
2023-02-17T22:34:46.381Z,16.10
2023-02-17T22:37:14.884Z,15.23
2023-02-17T22:39:47.568Z,15.45
2023-02-17T22:42:19.308Z,15.25
2023-02-17T22:44:47.774Z,15.38
2023-02-17T22:47:17.072Z,16.52
2023-02-17T22:49:49.174Z,18.35
2023-02-17T22:52:17.306Z,17.77
2023-02-17T22:54:45.505Z,19.25
2023-02-17T22:57:13.941Z,18.70
2023-02-17T23:00:02.380Z,18.20
2023-02-17T23:02:36.788Z,17.77
2023-02-17T23:05:05.601Z,17.58
2023-02-17T23:07:47.445Z,17.23
2023-02-17T23:10:24.075Z,18.58
2023-02-17T23:12:54.818Z,18.38
2023-02-17T23:15:39.551Z,17.83
2023-02-17T23:18:11.797Z,17.55
2023-02-17T23:20:42.947Z,16.88
2023-02-17T23:23:21.164Z,16.83
2023-02-17T23:25:53.954Z,15.75
2023-02-17T23:28:23.944Z,16.88
2023-02-17T23:30:52.315Z,15.93
2023-02-17T23:33:22.445Z,16.45
2023-02-17T23:36:22.628Z,17.70
2023-02-17T23:38:52.673Z,18.60
2023-02-17T23:41:20.827Z,16.90
2023-02-17T23:43:52.016Z,16.90
2023-02-17T23:46:20.847Z,19.27
2023-02-17T23:49:10.581Z,19.55
2023-02-17T23:51:40.510Z,20.42
2023-02-17T23:54:10.194Z,15.98
2023-02-17T23:56:40.362Z,17.17
2023-02-17T23:59:08.897Z,17.65
